sensor_id;sensor_type;location;lat;lon;timestamp;pressure;altitude;pressure_sealevel;temperature;humidity
22000;BME280;11164;48.818;2.322;2023-02-22T00:00:18;100383.34;;;13.10;38.93
22000;BME280;11164;48.818;2.322;2023-02-22T00:02:47;100377.03;;;13.17;39.04
22000;BME280;11164;48.818;2.322;2023-02-22T00:05:14;100374.09;;;13.18;39.09
22000;BME280;11164;48.818;2.322;2023-02-22T00:07:47;100372.41;;;13.24;38.90
22000;BME280;11164;48.818;2.322;2023-02-22T00:10:14;100374.22;;;13.30;38.78
22000;BME280;11164;48.818;2.322;2023-02-22T00:12:45;100376.28;;;13.35;38.74
22000;BME280;11164;48.818;2.322;2023-02-22T00:15:12;100368.31;;;13.40;38.65
22000;BME280;11164;48.818;2.322;2023-02-22T00:17:38;100357.91;;;13.37;38.65
22000;BME280;11164;48.818;2.322;2023-02-22T00:20:04;100354.41;;;13.36;38.76
22000;BME280;11164;48.818;2.322;2023-02-22T00:22:30;100360.41;;;13.38;38.98
22000;BME280;11164;48.818;2.322;2023-02-22T00:24:56;100356.63;;;13.39;38.94
22000;BME280;11164;48.818;2.322;2023-02-22T00:27:22;100356.63;;;13.39;38.98
22000;BME280;11164;48.818;2.322;2023-02-22T00:29:47;100354.41;;;13.36;39.04
22000;BME280;11164;48.818;2.322;2023-02-22T00:32:13;100357.47;;;13.40;39.13
22000;BME280;11164;48.818;2.322;2023-02-22T00:34:39;100355.97;;;13.44;39.04
22000;BME280;11164;48.818;2.322;2023-02-22T00:37:05;100345.34;;;13.42;39.00
22000;BME280;11164;48.818;2.322;2023-02-22T00:39:30;100343.72;;;13.41;39.11
22000;BME280;11164;48.818;2.322;2023-02-22T00:41:56;100342.00;;;13.47;39.18
22000;BME280;11164;48.818;2.322;2023-02-22T00:44:21;100337.00;;;13.44;39.13
22000;BME280;11164;48.818;2.322;2023-02-22T00:46:47;100340.38;;;13.39;39.38
22000;BME280;11164;48.818;2.322;2023-02-22T00:49:16;100340.53;;;13.44;39.37
22000;BME280;11164;48.818;2.322;2023-02-22T00:51:42;100340.38;;;13.39;39.52
22000;BME280;11164;48.818;2.322;2023-02-22T00:54:07;100336.41;;;13.42;39.48
22000;BME280;11164;48.818;2.322;2023-02-22T00:56:33;100331.66;;;13.37;39.71
22000;BME280;11164;48.818;2.322;2023-02-22T00:58:59;100339.78;;;13.37;39.64
22000;BME280;11164;48.818;2.322;2023-02-22T01:01:26;100338.59;;;13.33;39.62
22000;BME280;11164;48.818;2.322;2023-02-22T01:03:52;100329.84;;;13.31;39.73
22000;BME280;11164;48.818;2.322;2023-02-22T01:06:18;100323.16;;;13.34;39.75
22000;BME280;11164;48.818;2.322;2023-02-22T01:08:44;100328.13;;;13.37;39.57
22000;BME280;11164;48.818;2.322;2023-02-22T01:11:11;100333.75;;;13.35;39.73
22000;BME280;11164;48.818;2.322;2023-02-22T01:13:36;100327.81;;;13.26;40.04
22000;BME280;11164;48.818;2.322;2023-02-22T01:16:02;100316.00;;;13.21;40.06
22000;BME280;11164;48.818;2.322;2023-02-22T01:18:28;100321.41;;;13.21;39.89
22000;BME280;11164;48.818;2.322;2023-02-22T01:20:53;100326.16;;;13.25;39.96
22000;BME280;11164;48.818;2.322;2023-02-22T01:23:18;100317.13;;;13.31;39.69
22000;BME280;11164;48.818;2.322;2023-02-22T01:25:44;100320.28;;;13.28;39.71
22000;BME280;11164;48.818;2.322;2023-02-22T01:28:10;100322.69;;;13.18;39.85
22000;BME280;11164;48.818;2.322;2023-02-22T01:30:35;100320.81;;;13.19;40.00
22000;BME280;11164;48.818;2.322;2023-02-22T01:33:04;100311.69;;;13.13;40.14
22000;BME280;11164;48.818;2.322;2023-02-22T01:35:33;100309.50;;;13.03;40.38
22000;BME280;11164;48.818;2.322;2023-02-22T01:37:58;100313.78;;;13.11;39.98
22000;BME280;11164;48.818;2.322;2023-02-22T01:40:30;100310.25;;;13.10;40.33
22000;BME280;11164;48.818;2.322;2023-02-22T01:42:58;100307.19;;;13.07;40.27
22000;BME280;11164;48.818;2.322;2023-02-22T01:50:37;100309.59;;;12.90;40.58
22000;BME280;11164;48.818;2.322;2023-02-22T01:53:04;100315.09;;;12.76;40.50
22000;BME280;11164;48.818;2.322;2023-02-22T01:55:32;100329.69;;;12.75;40.77
22000;BME280;11164;48.818;2.322;2023-02-22T01:57:59;100322.84;;;12.66;40.95
22000;BME280;11164;48.818;2.322;2023-02-22T02:00:25;100323.78;;;12.53;41.17
22000;BME280;11164;48.818;2.322;2023-02-22T02:02:56;100321.53;;;12.50;41.14
22000;BME280;11164;48.818;2.322;2023-02-22T02:05:25;100318.41;;;12.47;41.24
22000;BME280;11164;48.818;2.322;2023-02-22T02:07:51;100317.38;;;12.48;41.07
22000;BME280;11164;48.818;2.322;2023-02-22T02:10:17;100306.34;;;12.49;41.06
22000;BME280;11164;48.818;2.322;2023-02-22T02:12:47;100307.19;;;12.50;41.11
22000;BME280;11164;48.818;2.322;2023-02-22T02:17:42;100302.94;;;12.61;40.86
22000;BME280;11164;48.818;2.322;2023-02-22T02:20:21;100301.94;;;12.55;41.30
22000;BME280;11164;48.818;2.322;2023-02-22T02:28:26;100294.16;;;12.33;41.53
22000;BME280;11164;48.818;2.322;2023-02-22T02:33:42;100288.34;;;12.36;41.24
22000;BME280;11164;48.818;2.322;2023-02-22T02:36:16;100286.22;;;12.38;41.15
22000;BME280;11164;48.818;2.322;2023-02-22T02:38:49;100285.19;;;12.40;41.11
22000;BME280;11164;48.818;2.322;2023-02-22T02:41:32;100283.78;;;12.37;41.24
22000;BME280;11164;48.818;2.322;2023-02-22T02:44:03;100281.53;;;12.27;41.31
22000;BME280;11164;48.818;2.322;2023-02-22T02:46:38;100284.88;;;12.23;41.24
22000;BME280;11164;48.818;2.322;2023-02-22T02:49:10;100280.38;;;12.16;41.56
22000;BME280;11164;48.818;2.322;2023-02-22T02:51:39;100281.63;;;12.07;41.58
22000;BME280;11164;48.818;2.322;2023-02-22T02:54:05;100274.63;;;11.99;41.85
22000;BME280;11164;48.818;2.322;2023-02-22T02:56:33;100266.09;;;12.03;41.71
22000;BME280;11164;48.818;2.322;2023-02-22T02:58:58;100266.09;;;12.03;41.76
22000;BME280;11164;48.818;2.322;2023-02-22T03:11:52;100273.47;;;11.82;42.01
22000;BME280;11164;48.818;2.322;2023-02-22T03:14:52;100266.19;;;11.82;43.22
22000;BME280;11164;48.818;2.322;2023-02-22T03:20:00;100273.25;;;11.84;42.48
22000;BME280;11164;48.818;2.322;2023-02-22T03:22:54;100272.41;;;11.83;42.70
22000;BME280;11164;48.818;2.322;2023-02-22T03:25:42;100265.31;;;11.95;42.55
22000;BME280;11164;48.818;2.322;2023-02-22T03:28:13;100255.09;;;11.97;41.89
22000;BME280;11164;48.818;2.322;2023-02-22T03:30:47;100254.81;;;12.06;41.64
22000;BME280;11164;48.818;2.322;2023-02-22T03:33:55;100256.09;;;12.03;41.98
22000;BME280;11164;48.818;2.322;2023-02-22T03:36:18;100244.31;;;11.97;41.78
22000;BME280;11164;48.818;2.322;2023-02-22T03:38:47;100244.91;;;11.99;41.94
22000;BME280;11164;48.818;2.322;2023-02-22T03:41:16;100245.72;;;12.00;41.82
22000;BME280;11164;48.818;2.322;2023-02-22T03:43:46;100247.34;;;12.08;41.72
22000;BME280;11164;48.818;2.322;2023-02-22T03:46:13;100249.59;;;12.11;41.63
22000;BME280;11164;48.818;2.322;2023-02-22T03:48:47;100260.22;;;12.06;41.85
22000;BME280;11164;48.818;2.322;2023-02-22T03:51:18;100253.78;;;12.07;41.58
22000;BME280;11164;48.818;2.322;2023-02-22T03:53:45;100253.25;;;11.91;42.23
22000;BME280;11164;48.818;2.322;2023-02-22T03:56:19;100253.50;;;11.83;42.18
22000;BME280;11164;48.818;2.322;2023-02-22T03:58:46;100245.03;;;11.73;42.44
22000;BME280;11164;48.818;2.322;2023-02-22T04:01:13;100245.88;;;11.67;42.56
22000;BME280;11164;48.818;2.322;2023-02-22T04:03:39;100237.38;;;11.63;42.56
22000;BME280;11164;48.818;2.322;2023-02-22T04:06:06;100235.31;;;11.52;42.74
22000;BME280;11164;48.818;2.322;2023-02-22T04:08:32;100234.91;;;11.55;42.60
22000;BME280;11164;48.818;2.322;2023-02-22T04:10:58;100235.09;;;11.60;42.75
22000;BME280;11164;48.818;2.322;2023-02-22T04:13:23;100238.78;;;11.66;42.63
22000;BME280;11164;48.818;2.322;2023-02-22T04:15:48;100232.19;;;11.61;42.72
22000;BME280;11164;48.818;2.322;2023-02-22T04:18:14;100233.84;;;11.62;42.53
22000;BME280;11164;48.818;2.322;2023-02-22T04:20:39;100235.06;;;11.67;42.39
22000;BME280;11164;48.818;2.322;2023-02-22T04:23:05;100234.28;;;11.59;42.83
22000;BME280;11164;48.818;2.322;2023-02-22T04:25:30;100227.00;;;11.60;42.98
22000;BME280;11164;48.818;2.322;2023-02-22T04:27:56;100224.91;;;11.62;42.61
22000;BME280;11164;48.818;2.322;2023-02-22T04:30:21;100230.75;;;11.59;42.95
22000;BME280;11164;48.818;2.322;2023-02-22T04:32:47;100232.19;;;11.55;42.88
22000;BME280;11164;48.818;2.322;2023-02-22T04:35:13;100238.41;;;11.55;43.03
22000;BME280;11164;48.818;2.322;2023-02-22T04:37:38;100244.72;;;11.42;43.27
22000;BME280;11164;48.818;2.322;2023-02-22T04:40:04;100239.97;;;11.31;43.32
22000;BME280;11164;48.818;2.322;2023-02-22T04:42:36;100238.50;;;11.35;43.38
22000;BME280;11164;48.818;2.322;2023-02-22T04:45:03;100243.69;;;11.37;43.28
22000;BME280;11164;48.818;2.322;2023-02-22T04:47:29;100247.00;;;11.39;43.34
22000;BME280;11164;48.818;2.322;2023-02-22T04:49:54;100248.03;;;11.44;43.25
22000;BME280;11164;48.818;2.322;2023-02-22T04:52:20;100246.19;;;11.32;43.41
22000;BME280;11164;48.818;2.322;2023-02-22T04:54:46;100244.91;;;11.41;43.34
22000;BME280;11164;48.818;2.322;2023-02-22T04:57:11;100239.31;;;11.36;43.56
22000;BME280;11164;48.818;2.322;2023-02-22T04:59:36;100250.75;;;11.38;43.50
22000;BME280;11164;48.818;2.322;2023-02-22T05:02:02;100250.31;;;11.41;43.60
22000;BME280;11164;48.818;2.322;2023-02-22T05:04:27;100248.09;;;11.31;43.61
22000;BME280;11164;48.818;2.322;2023-02-22T05:06:53;100252.00;;;11.35;43.50
22000;BME280;11164;48.818;2.322;2023-02-22T05:09:18;100248.22;;;11.43;43.32
22000;BME280;11164;48.818;2.322;2023-02-22T05:11:44;100247.44;;;11.36;43.45
22000;BME280;11164;48.818;2.322;2023-02-22T05:14:09;100251.81;;;11.23;43.68
22000;BME280;11164;48.818;2.322;2023-02-22T05:16:35;100262.63;;;11.10;43.99
22000;BME280;11164;48.818;2.322;2023-02-22T05:19:00;100245.03;;;11.01;44.19
22000;BME280;11164;48.818;2.322;2023-02-22T05:21:26;100252.69;;;11.11;43.94
22000;BME280;11164;48.818;2.322;2023-02-22T05:23:51;100250.81;;;11.04;44.08
22000;BME280;11164;48.818;2.322;2023-02-22T05:26:16;100249.41;;;10.95;44.26
22000;BME280;11164;48.818;2.322;2023-02-22T05:28:43;100239.44;;;10.96;44.27
22000;BME280;11164;48.818;2.322;2023-02-22T05:31:08;100240.84;;;11.05;44.00
22000;BME280;11164;48.818;2.322;2023-02-22T05:33:33;100240.25;;;10.96;44.08
22000;BME280;11164;48.818;2.322;2023-02-22T05:35:59;100229.91;;;10.93;44.50
22000;BME280;11164;48.818;2.322;2023-02-22T05:38:24;100234.66;;;10.98;44.17
22000;BME280;11164;48.818;2.322;2023-02-22T05:40:50;100241.09;;;10.97;44.23
22000;BME280;11164;48.818;2.322;2023-02-22T05:43:15;100237.13;;;10.99;44.26
22000;BME280;11164;48.818;2.322;2023-02-22T05:45:40;100235.09;;;10.95;44.27
22000;BME280;11164;48.818;2.322;2023-02-22T05:48:06;100254.78;;;11.02;44.06
22000;BME280;11164;48.818;2.322;2023-02-22T05:50:32;100246.91;;;10.87;44.35
22000;BME280;11164;48.818;2.322;2023-02-22T05:52:57;100235.31;;;10.80;44.61
22000;BME280;11164;48.818;2.322;2023-02-22T05:55:23;100234.47;;;10.86;44.54
22000;BME280;11164;48.818;2.322;2023-02-22T05:57:50;100240.44;;;11.01;44.17
22000;BME280;11164;48.818;2.322;2023-02-22T06:00:24;100237.75;;;11.08;44.33
22000;BME280;11164;48.818;2.322;2023-02-22T06:02:57;100234.63;;;11.11;44.31
22000;BME280;11164;48.818;2.322;2023-02-22T06:05:23;100234.63;;;11.11;43.94
22000;BME280;11164;48.818;2.322;2023-02-22T06:07:49;100245.84;;;11.01;44.47
22000;BME280;11164;48.818;2.322;2023-02-22T06:10:15;100251.88;;;10.97;44.63
22000;BME280;11164;48.818;2.322;2023-02-22T06:12:40;100245.03;;;10.87;44.75
22000;BME280;11164;48.818;2.322;2023-02-22T06:15:06;100245.69;;;10.76;45.11
22000;BME280;11164;48.818;2.322;2023-02-22T06:17:31;100246.53;;;10.63;45.31
22000;BME280;11164;48.818;2.322;2023-02-22T06:19:57;100235.72;;;10.70;45.20
22000;BME280;11164;48.818;2.322;2023-02-22T06:22:22;100252.50;;;10.85;44.65
22000;BME280;11164;48.818;2.322;2023-02-22T06:24:47;100242.97;;;10.90;44.60
22000;BME280;11164;48.818;2.322;2023-02-22T06:27:13;100246.28;;;10.98;44.53
22000;BME280;11164;48.818;2.322;2023-02-22T06:29:38;100252.72;;;10.91;44.95
22000;BME280;11164;48.818;2.322;2023-02-22T06:32:04;100248.16;;;10.84;44.86
22000;BME280;11164;48.818;2.322;2023-02-22T06:34:29;100246.28;;;10.92;44.85
22000;BME280;11164;48.818;2.322;2023-02-22T06:36:54;100249.41;;;10.95;44.82
22000;BME280;11164;48.818;2.322;2023-02-22T06:39:20;100252.28;;;11.00;44.77
22000;BME280;11164;48.818;2.322;2023-02-22T06:41:46;100261.41;;;10.93;45.31
22000;BME280;11164;48.818;2.322;2023-02-22T06:44:13;100258.97;;;10.84;45.27
22000;BME280;11164;48.818;2.322;2023-02-22T06:46:38;100262.28;;;10.86;45.20
22000;BME280;11164;48.818;2.322;2023-02-22T06:49:04;100271.19;;;10.74;45.47
22000;BME280;11164;48.818;2.322;2023-02-22T06:51:34;100269.94;;;10.63;45.70
22000;BME280;11164;48.818;2.322;2023-02-22T06:54:00;100275.97;;;10.78;45.46
22000;BME280;11164;48.818;2.322;2023-02-22T06:56:26;100290.25;;;10.85;45.40
22000;BME280;11164;48.818;2.322;2023-02-22T06:58:51;100280.13;;;10.81;45.58
22000;BME280;11164;48.818;2.322;2023-02-22T07:01:16;100275.56;;;10.88;45.52
22000;BME280;11164;48.818;2.322;2023-02-22T07:03:42;100274.50;;;10.96;45.47
22000;BME280;11164;48.818;2.322;2023-02-22T07:06:07;100267.88;;;10.92;45.87
22000;BME280;11164;48.818;2.322;2023-02-22T07:08:33;100264.53;;;11.03;45.61
22000;BME280;11164;48.818;2.322;2023-02-22T07:10:58;100262.28;;;10.86;46.03
22000;BME280;11164;48.818;2.322;2023-02-22T07:13:23;100283.84;;;10.73;46.62
22000;BME280;11164;48.818;2.322;2023-02-22T07:15:49;100280.75;;;10.76;46.41
22000;BME280;11164;48.818;2.322;2023-02-22T07:18:14;100290.06;;;10.74;46.52
22000;BME280;11164;48.818;2.322;2023-02-22T07:20:40;100294.03;;;10.84;46.18
22000;BME280;11164;48.818;2.322;2023-02-22T07:23:06;100290.06;;;10.74;46.31
22000;BME280;11164;48.818;2.322;2023-02-22T07:25:32;100307.09;;;10.74;46.35
22000;BME280;11164;48.818;2.322;2023-02-22T07:27:57;100305.41;;;10.66;46.76
22000;BME280;11164;48.818;2.322;2023-02-22T07:30:24;100305.38;;;10.46;47.18
22000;BME280;11164;48.818;2.322;2023-02-22T07:32:51;100301.41;;;10.42;47.18
22000;BME280;11164;48.818;2.322;2023-02-22T07:35:21;100295.00;;;10.43;47.24
22000;BME280;11164;48.818;2.322;2023-02-22T07:37:46;100308.06;;;10.53;47.04
22000;BME280;11164;48.818;2.322;2023-02-22T07:40:13;100309.50;;;10.56;46.79
22000;BME280;11164;48.818;2.322;2023-02-22T07:42:55;100320.69;;;10.39;49.23
22000;BME280;11164;48.818;2.322;2023-02-22T07:45:23;100322.94;;;10.29;47.69
22000;BME280;11164;48.818;2.322;2023-02-22T07:47:48;100314.81;;;10.16;48.13
22000;BME280;11164;48.818;2.322;2023-02-22T07:50:15;100315.88;;;10.21;47.71
22000;BME280;11164;48.818;2.322;2023-02-22T07:52:45;100315.66;;;10.23;48.17
22000;BME280;11164;48.818;2.322;2023-02-22T07:55:15;100314.19;;;10.13;48.17
22000;BME280;11164;48.818;2.322;2023-02-22T07:57:45;100318.75;;;10.20;48.01
22000;BME280;11164;48.818;2.322;2023-02-22T08:00:11;100323.94;;;10.08;48.36
22000;BME280;11164;48.818;2.322;2023-02-22T08:02:39;100326.03;;;10.19;48.11
22000;BME280;11164;48.818;2.322;2023-02-22T08:05:06;100321.66;;;10.11;48.22
22000;BME280;11164;48.818;2.322;2023-02-22T08:07:31;100327.03;;;10.18;48.14
22000;BME280;11164;48.818;2.322;2023-02-22T08:09:57;100305.47;;;10.05;48.02
22000;BME280;11164;48.818;2.322;2023-02-22T08:12:22;100294.28;;;10.15;48.47
22000;BME280;11164;48.818;2.322;2023-02-22T08:14:48;100313.97;;;10.08;48.71
22000;BME280;11164;48.818;2.322;2023-02-22T08:17:13;100317.00;;;9.92;49.54
22000;BME280;11164;48.818;2.322;2023-02-22T08:19:39;100325.06;;;9.79;49.87
22000;BME280;11164;48.818;2.322;2023-02-22T08:22:04;100324.13;;;10.06;48.95
22000;BME280;11164;48.818;2.322;2023-02-22T08:24:29;100326.03;;;10.26;48.74
22000;BME280;11164;48.818;2.322;2023-02-22T08:26:56;100328.09;;;10.17;48.83
22000;BME280;11164;48.818;2.322;2023-02-22T08:29:22;100323.16;;;10.27;48.53
22000;BME280;11164;48.818;2.322;2023-02-22T08:31:50;100330.22;;;10.35;48.50
22000;BME280;11164;48.818;2.322;2023-02-22T08:34:19;100348.69;;;10.45;48.42
22000;BME280;11164;48.818;2.322;2023-02-22T08:36:44;100339.47;;;10.12;49.66
22000;BME280;11164;48.818;2.322;2023-02-22T08:39:10;100318.13;;;10.18;49.12
22000;BME280;11164;48.818;2.322;2023-02-22T08:41:35;100335.44;;;10.50;48.41
22000;BME280;11164;48.818;2.322;2023-02-22T08:44:01;100338.72;;;10.45;48.86
22000;BME280;11164;48.818;2.322;2023-02-22T08:46:27;100355.00;;;10.10;49.91
22000;BME280;11164;48.818;2.322;2023-02-22T08:48:52;100357.97;;;10.29;49.38
22000;BME280;11164;48.818;2.322;2023-02-22T08:51:18;100357.00;;;10.50;48.81
22000;BME280;11164;48.818;2.322;2023-02-22T08:53:44;100365.47;;;10.40;49.05
22000;BME280;11164;48.818;2.322;2023-02-22T08:56:10;100357.13;;;10.22;49.77
22000;BME280;11164;48.818;2.322;2023-02-22T08:58:35;100343.06;;;10.33;49.37
22000;BME280;11164;48.818;2.322;2023-02-22T09:01:01;100347.03;;;10.50;49.09
22000;BME280;11164;48.818;2.322;2023-02-22T09:03:26;100346.16;;;10.30;49.75
22000;BME280;11164;48.818;2.322;2023-02-22T09:05:52;100347.63;;;10.46;49.38
22000;BME280;11164;48.818;2.322;2023-02-22T09:08:18;100349.59;;;10.79;48.41
22000;BME280;11164;48.818;2.322;2023-02-22T09:10:44;100341.94;;;10.69;48.75
22000;BME280;11164;48.818;2.322;2023-02-22T09:13:10;100352.28;;;10.65;48.81
22000;BME280;11164;48.818;2.322;2023-02-22T09:15:36;100347.53;;;10.94;48.18
22000;BME280;11164;48.818;2.322;2023-02-22T09:18:03;100360.63;;;11.04;48.21
22000;BME280;11164;48.818;2.322;2023-02-22T09:20:28;100367.25;;;10.81;48.80
22000;BME280;11164;48.818;2.322;2023-02-22T09:22:54;100346.91;;;10.79;48.62
22000;BME280;11164;48.818;2.322;2023-02-22T09:25:20;100361.66;;;10.90;48.60
22000;BME280;11164;48.818;2.322;2023-02-22T09:27:48;100355.00;;;10.65;49.59
22000;BME280;11164;48.818;2.322;2023-02-22T09:30:28;100346.81;;;10.45;50.88
22000;BME280;11164;48.818;2.322;2023-02-22T09:32:59;100345.06;;;10.86;48.97
22000;BME280;11164;48.818;2.322;2023-02-22T09:35:25;100344.00;;;10.87;48.92
22000;BME280;11164;48.818;2.322;2023-02-22T09:37:54;100352.72;;;10.69;49.57
22000;BME280;11164;48.818;2.322;2023-02-22T09:40:21;100346.28;;;10.83;49.09
22000;BME280;11164;48.818;2.322;2023-02-22T09:43:00;100345.47;;;10.83;49.44
22000;BME280;11164;48.818;2.322;2023-02-22T09:46:29;100339.22;;;10.89;50.97
22000;BME280;11164;48.818;2.322;2023-02-22T09:48:50;100344.84;;;10.81;50.90
22000;BME280;11164;48.818;2.322;2023-02-22T09:51:18;100349.59;;;10.79;49.42
22000;BME280;11164;48.818;2.322;2023-02-22T09:53:46;100346.72;;;10.94;49.31
22000;BME280;11164;48.818;2.322;2023-02-22T09:56:16;100353.53;;;10.96;49.01
22000;BME280;11164;48.818;2.322;2023-02-22T09:58:47;100351.06;;;11.35;48.32
22000;BME280;11164;48.818;2.322;2023-02-22T10:01:39;100359.75;;;11.43;48.19
22000;BME280;11164;48.818;2.322;2023-02-22T10:04:21;100356.88;;;11.32;48.51
22000;BME280;11164;48.818;2.322;2023-02-22T10:07:25;100353.16;;;11.13;50.01
22000;BME280;11164;48.818;2.322;2023-02-22T10:09:53;100350.25;;;11.28;48.67
22000;BME280;11164;48.818;2.322;2023-02-22T10:12:28;100346.69;;;11.34;48.78
22000;BME280;11164;48.818;2.322;2023-02-22T10:25:25;100344.31;;;11.71;47.69
22000;BME280;11164;48.818;2.322;2023-02-22T10:27:57;100350.19;;;11.61;48.32
22000;BME280;11164;48.818;2.322;2023-02-22T10:30:31;100348.69;;;11.65;47.90
22000;BME280;11164;48.818;2.322;2023-02-22T10:33:16;100351.00;;;11.75;48.14
22000;BME280;11164;48.818;2.322;2023-02-22T10:35:44;100350.75;;;11.83;47.65
22000;BME280;11164;48.818;2.322;2023-02-22T10:38:18;100353.69;;;11.61;48.37
22000;BME280;11164;48.818;2.322;2023-02-22T10:40:47;100344.44;;;12.09;49.01
22000;BME280;11164;48.818;2.322;2023-02-22T10:43:13;100330.41;;;11.80;47.63
22000;BME280;11164;48.818;2.322;2023-02-22T10:45:39;100339.78;;;11.58;48.36
22000;BME280;11164;48.818;2.322;2023-02-22T10:48:13;100352.69;;;11.49;48.69
22000;BME280;11164;48.818;2.322;2023-02-22T10:50:42;100356.38;;;11.68;48.06
22000;BME280;11164;48.818;2.322;2023-02-22T10:53:09;100352.91;;;11.41;48.63
22000;BME280;11164;48.818;2.322;2023-02-22T10:55:35;100361.44;;;11.18;49.08
22000;BME280;11164;48.818;2.322;2023-02-22T10:58:05;100356.25;;;11.16;49.21
22000;BME280;11164;48.818;2.322;2023-02-22T11:00:38;100365.78;;;11.19;49.66
22000;BME280;11164;48.818;2.322;2023-02-22T11:03:21;100359.56;;;11.12;50.56
22000;BME280;11164;48.818;2.322;2023-02-22T11:05:48;100363.72;;;10.87;49.80
22000;BME280;11164;48.818;2.322;2023-02-22T11:10:54;100358.13;;;11.22;49.84
22000;BME280;11164;48.818;2.322;2023-02-22T11:13:36;100357.88;;;11.44;48.39
22000;BME280;11164;48.818;2.322;2023-02-22T11:16:26;100351.81;;;11.69;48.34
22000;BME280;11164;48.818;2.322;2023-02-22T11:21:36;100355.50;;;11.94;47.38
22000;BME280;11164;48.818;2.322;2023-02-22T11:24:04;100346.59;;;11.74;47.88
22000;BME280;11164;48.818;2.322;2023-02-22T11:26:38;100347.88;;;11.78;48.19
22000;BME280;11164;48.818;2.322;2023-02-22T11:29:10;100344.50;;;11.89;47.83
22000;BME280;11164;48.818;2.322;2023-02-22T11:31:41;100353.47;;;11.70;48.84
22000;BME280;11164;48.818;2.322;2023-02-22T11:34:34;100357.66;;;11.52;49.06
22000;BME280;11164;48.818;2.322;2023-02-22T11:37:35;100352.88;;;11.68;48.55
22000;BME280;11164;48.818;2.322;2023-02-22T11:42:36;100343.69;;;11.69;48.16
22000;BME280;11164;48.818;2.322;2023-02-22T11:45:12;100335.19;;;11.85;48.26
22000;BME280;11164;48.818;2.322;2023-02-22T11:50:20;100333.84;;;12.01;47.36
22000;BME280;11164;48.818;2.322;2023-02-22T11:58:42;100337.16;;;12.03;47.63
22000;BME280;11164;48.818;2.322;2023-02-22T12:17:12;100316.47;;;11.84;47.91
22000;BME280;11164;48.818;2.322;2023-02-22T12:19:49;100315.06;;;11.61;48.64
22000;BME280;11164;48.818;2.322;2023-02-22T12:22:21;100313.44;;;11.47;48.72
22000;BME280;11164;48.818;2.322;2023-02-22T12:25:01;100309.47;;;11.56;48.49
22000;BME280;11164;48.818;2.322;2023-02-22T12:27:39;100311.56;;;11.54;48.30
22000;BME280;11164;48.818;2.322;2023-02-22T12:30:16;100306.69;;;11.82;47.89
22000;BME280;11164;48.818;2.322;2023-02-22T12:32:46;100308.47;;;12.02;47.45
22000;BME280;11164;48.818;2.322;2023-02-22T12:35:20;100306.16;;;12.12;47.57
22000;BME280;11164;48.818;2.322;2023-02-22T12:40:20;100301.69;;;11.86;48.05
22000;BME280;11164;48.818;2.322;2023-02-22T12:43:07;100298.28;;;11.52;48.70
22000;BME280;11164;48.818;2.322;2023-02-22T12:54:40;100308.66;;;11.49;48.63
22000;BME280;11164;48.818;2.322;2023-02-22T13:00:00;100303.88;;;11.51;48.28
22000;BME280;11164;48.818;2.322;2023-02-22T13:02:31;100301.56;;;11.68;48.12
22000;BME280;11164;48.818;2.322;2023-02-22T13:05:00;100298.19;;;11.86;47.69
22000;BME280;11164;48.818;2.322;2023-02-22T13:10:33;100290.75;;;11.68;48.23
22000;BME280;11164;48.818;2.322;2023-02-22T13:18:34;100311.19;;;11.23;49.29
22000;BME280;11164;48.818;2.322;2023-02-22T13:23:46;100305.38;;;11.27;48.94
22000;BME280;11164;48.818;2.322;2023-02-22T13:26:30;100297.88;;;11.42;48.97
22000;BME280;11164;48.818;2.322;2023-02-22T13:30:00;100289.31;;;11.58;49.13
22000;BME280;11164;48.818;2.322;2023-02-22T13:35:47;100292.91;;;11.39;48.71
22000;BME280;11164;48.818;2.322;2023-02-22T13:47:00;100280.13;;;11.79;47.97
22000;BME280;11164;48.818;2.322;2023-02-22T13:52:11;100274.50;;;11.74;47.92
22000;BME280;11164;48.818;2.322;2023-02-22T13:54:50;100274.47;;;11.88;47.84
22000;BME280;11164;48.818;2.322;2023-02-22T14:05:34;100274.72;;;11.73;49.27
22000;BME280;11164;48.818;2.322;2023-02-22T14:08:00;100279.16;;;11.54;47.98
22000;BME280;11164;48.818;2.322;2023-02-22T14:16:31;100250.72;;;11.44;47.95
22000;BME280;11164;48.818;2.322;2023-02-22T14:21:34;100275.44;;;11.41;48.11
22000;BME280;11164;48.818;2.322;2023-02-22T14:24:13;100280.69;;;11.30;48.93
22000;BME280;11164;48.818;2.322;2023-02-22T14:26:40;100284.66;;;11.07;48.60
22000;BME280;11164;48.818;2.322;2023-02-22T14:29:17;100284.66;;;11.07;48.54
22000;BME280;11164;48.818;2.322;2023-02-22T14:34:11;100282.53;;;11.29;47.97
22000;BME280;11164;48.818;2.322;2023-02-22T14:39:18;100282.97;;;11.19;48.50
22000;BME280;11164;48.818;2.322;2023-02-22T14:41:56;100285.59;;;11.46;48.29
22000;BME280;11164;48.818;2.322;2023-02-22T14:44:29;100284.56;;;11.47;47.76
22000;BME280;11164;48.818;2.322;2023-02-22T14:46:58;100283.78;;;11.40;48.25
22000;BME280;11164;48.818;2.322;2023-02-22T14:49:32;100291.47;;;11.23;48.68
22000;BME280;11164;48.818;2.322;2023-02-22T14:52:05;100275.91;;;11.32;48.65
22000;BME280;11164;48.818;2.322;2023-02-22T14:55:06;100285.41;;;11.41;50.51
22000;BME280;11164;48.818;2.322;2023-02-22T15:00:22;100277.59;;;10.99;49.48
22000;BME280;11164;48.818;2.322;2023-02-22T15:02:56;100288.16;;;11.28;48.80
22000;BME280;11164;48.818;2.322;2023-02-22T15:05:24;100280.22;;;11.46;48.29
22000;BME280;11164;48.818;2.322;2023-02-22T15:07:54;100280.91;;;11.21;48.71
22000;BME280;11164;48.818;2.322;2023-02-22T15:13:02;100275.22;;;11.43;48.84
22000;BME280;11164;48.818;2.322;2023-02-22T15:15:40;100268.47;;;11.14;49.23
22000;BME280;11164;48.818;2.322;2023-02-22T15:18:25;100278.88;;;11.03;51.02
22000;BME280;11164;48.818;2.322;2023-02-22T15:20:56;100268.22;;;11.15;49.26